createdAt,value
2019-05-05T00:01:56.659Z,73.70
2019-05-05T00:04:55.230Z,73.70
2019-05-05T00:07:34.808Z,73.90
2019-05-05T00:10:07.088Z,73.80
2019-05-05T00:12:52.395Z,73.90
2019-05-05T00:15:42.423Z,74.00
2019-05-05T00:18:14.832Z,74.10
2019-05-05T00:20:45.731Z,74.10
2019-05-05T00:23:16.583Z,74.10
2019-05-05T00:25:50.490Z,74.20
2019-05-05T00:28:21.428Z,74.30
2019-05-05T00:30:52.622Z,74.30
2019-05-05T00:33:24.921Z,74.30
2019-05-05T00:35:55.932Z,74.40
2019-05-05T00:38:26.801Z,74.50
2019-05-05T00:40:57.658Z,74.50
2019-05-05T00:43:28.608Z,74.70
2019-05-05T00:46:05.326Z,74.70
2019-05-05T00:48:46.562Z,74.70
2019-05-05T00:51:17.401Z,74.70
2019-05-05T00:53:48.318Z,74.80
2019-05-05T00:56:19.135Z,74.90
2019-05-05T00:58:55.355Z,74.90
2019-05-05T01:01:47.635Z,75.00
2019-05-05T01:04:21.917Z,75.00
2019-05-05T01:06:54.432Z,75.00
2019-05-05T01:09:28.129Z,75.00
2019-05-05T01:11:59.683Z,75.10
2019-05-05T01:14:30.633Z,75.10
2019-05-05T01:17:01.515Z,75.20
2019-05-05T01:19:32.436Z,75.30
2019-05-05T01:22:04.926Z,75.40
2019-05-05T01:24:35.836Z,75.40
2019-05-05T01:27:06.867Z,75.40
2019-05-05T01:29:37.691Z,75.50
2019-05-05T01:32:12.205Z,75.50
2019-05-05T01:34:44.709Z,75.60
2019-05-05T01:37:25.455Z,75.60
2019-05-05T01:40:15.341Z,75.60
2019-05-05T01:42:46.638Z,75.60
2019-05-05T01:45:17.466Z,75.70
2019-05-05T01:47:48.396Z,75.80
2019-05-05T01:50:21.299Z,75.80
2019-05-05T01:52:51.737Z,75.90
2019-05-05T01:55:25.120Z,75.90
2019-05-05T01:57:55.667Z,75.90
2019-05-05T02:00:27.069Z,76.00
2019-05-05T02:02:57.946Z,76.10
2019-05-05T02:05:28.810Z,76.10
2019-05-05T02:07:59.776Z,76.10
2019-05-05T02:10:30.571Z,76.10
2019-05-05T02:13:01.536Z,76.20
2019-05-05T02:15:34.406Z,76.20
2019-05-05T02:18:05.058Z,76.30
2019-05-05T02:20:45.130Z,76.30
2019-05-05T02:23:17.232Z,76.30
2019-05-05T02:25:48.526Z,76.40
2019-05-05T02:28:19.400Z,76.40
2019-05-05T02:31:00.907Z,76.40
2019-05-05T02:33:31.897Z,76.40
2019-05-05T02:36:05.274Z,76.40
2019-05-05T02:38:35.702Z,76.40
2019-05-05T02:41:07.282Z,76.40
2019-05-05T02:43:38.834Z,76.40
2019-05-05T02:46:25.247Z,76.40
2019-05-05T02:48:58.087Z,76.50
2019-05-05T02:51:29.821Z,76.40
2019-05-05T02:54:04.454Z,76.40
2019-05-05T02:56:45.643Z,76.60
2019-05-05T02:59:26.088Z,76.50
2019-05-05T03:02:04.054Z,76.60
2019-05-05T03:04:34.441Z,76.80
2019-05-05T03:07:06.201Z,76.80
2019-05-05T03:09:37.462Z,76.80
2019-05-05T03:12:11.109Z,77.00
2019-05-05T03:14:44.842Z,77.00
2019-05-05T03:17:16.083Z,77.10
2019-05-05T03:19:47.068Z,77.10
2019-05-05T03:22:18.315Z,77.10
2019-05-05T03:24:49.617Z,77.00
2019-05-05T03:27:21.139Z,77.30
2019-05-05T03:29:53.564Z,77.30
2019-05-05T03:32:25.627Z,77.30
2019-05-05T03:34:56.760Z,77.30
2019-05-05T03:37:27.700Z,77.50
2019-05-05T03:40:06.027Z,77.50
2019-05-05T03:42:50.361Z,77.50
2019-05-05T03:45:49.221Z,77.40
2019-05-05T03:48:20.329Z,77.50
2019-05-05T03:50:51.220Z,77.50
2019-05-05T03:53:24.427Z,77.60
2019-05-05T03:55:55.532Z,77.60
2019-05-05T03:58:27.040Z,77.70
2019-05-05T04:02:00.562Z,77.70
2019-05-05T04:04:35.263Z,77.70
2019-05-05T04:07:06.482Z,77.70
2019-05-05T04:09:37.832Z,77.70
2019-05-05T04:12:08.700Z,77.80
2019-05-05T04:14:40.443Z,77.70
2019-05-05T04:17:26.065Z,77.60
2019-05-05T04:19:57.409Z,77.80
2019-05-05T04:22:28.286Z,77.90
2019-05-05T04:24:59.477Z,77.90
2019-05-05T04:27:30.641Z,77.80
2019-05-05T04:30:03.708Z,77.80
2019-05-05T04:32:35.151Z,77.70
2019-05-05T04:35:06.208Z,77.70
2019-05-05T04:37:37.057Z,77.50
2019-05-05T04:40:07.946Z,77.40
2019-05-05T04:42:38.766Z,77.50
2019-05-05T04:45:10.038Z,77.50
2019-05-05T04:47:43.632Z,77.30
2019-05-05T04:50:34.518Z,77.30
2019-05-05T04:53:09.885Z,77.20
2019-05-05T04:55:40.621Z,77.00
2019-05-05T04:58:13.550Z,76.80
2019-05-05T05:00:44.234Z,76.60
2019-05-05T05:03:34.616Z,76.30
2019-05-05T05:06:09.121Z,76.50
2019-05-05T05:08:40.085Z,76.40
2019-05-05T05:11:10.871Z,76.40
2019-05-05T05:13:43.874Z,76.00
2019-05-05T05:16:14.163Z,75.70
2019-05-05T05:18:45.026Z,75.30
2019-05-05T05:21:15.855Z,75.20
2019-05-05T05:23:46.732Z,75.20
2019-05-05T05:26:17.656Z,75.60
2019-05-05T05:28:48.411Z,75.60
2019-05-05T05:31:19.327Z,75.70
2019-05-05T05:33:50.225Z,76.20
2019-05-05T05:36:21.165Z,75.10
2019-05-05T05:38:54.279Z,75.30
2019-05-05T05:41:44.613Z,75.00
2019-05-05T05:44:46.802Z,74.30
2019-05-05T05:47:45.341Z,73.50
2019-05-05T05:50:24.540Z,73.10
2019-05-05T05:52:55.500Z,72.90
2019-05-05T05:55:26.360Z,72.80
2019-05-05T05:57:57.232Z,72.90
2019-05-05T06:00:28.081Z,73.10
2019-05-05T06:02:58.954Z,73.70
2019-05-05T06:05:30.060Z,73.70
2019-05-05T06:08:00.866Z,73.10
2019-05-05T06:10:33.729Z,72.80
2019-05-05T06:13:04.353Z,72.80
2019-05-05T06:15:35.673Z,72.90
2019-05-05T06:18:07.417Z,72.80
2019-05-05T06:20:38.237Z,72.80
2019-05-05T06:23:09.145Z,72.50
2019-05-05T06:25:40.525Z,72.50
2019-05-05T06:28:11.441Z,72.40
2019-05-05T06:30:44.294Z,72.20
2019-05-05T06:33:14.906Z,72.10
2019-05-05T06:35:45.795Z,72.20
2019-05-05T06:38:16.653Z,72.40
2019-05-05T06:40:56.370Z,72.20
2019-05-05T06:43:46.133Z,72.20
2019-05-05T06:46:20.427Z,73.20
2019-05-05T06:48:51.365Z,71.80
2019-05-05T06:51:22.154Z,71.40
2019-05-05T06:53:54.015Z,71.30
2019-05-05T06:56:24.900Z,72.30
2019-05-05T06:58:55.740Z,71.70
2019-05-05T07:01:26.898Z,71.60
2019-05-05T07:03:57.771Z,71.40
2019-05-05T07:06:28.665Z,71.10
2019-05-05T07:08:59.405Z,70.30
2019-05-05T07:11:30.340Z,70.00
2019-05-05T07:14:01.240Z,69.80
2019-05-05T07:16:34.412Z,69.80
2019-05-05T07:19:04.861Z,69.40
2019-05-05T07:21:35.753Z,68.40
2019-05-05T07:24:06.640Z,68.10
2019-05-05T07:26:37.484Z,68.10
2019-05-05T07:29:08.427Z,67.50
2019-05-05T07:31:39.296Z,67.80
2019-05-05T07:34:11.040Z,68.40
2019-05-05T07:36:48.783Z,68.20
2019-05-05T07:39:19.669Z,68.70
2019-05-05T07:41:50.547Z,68.70
2019-05-05T07:44:28.435Z,68.30
2019-05-05T07:46:54.446Z,68.40
2019-05-05T07:49:25.315Z,68.60
2019-05-05T07:51:56.329Z,68.30
2019-05-05T07:54:27.199Z,68.30
2019-05-05T07:56:58.171Z,68.70
2019-05-05T07:59:28.977Z,69.00
2019-05-05T08:01:59.853Z,69.00
2019-05-05T08:04:30.715Z,68.40
2019-05-05T08:07:01.558Z,68.00
2019-05-05T08:09:33.861Z,68.10
2019-05-05T08:12:06.364Z,68.60
2019-05-05T08:14:37.291Z,68.80
2019-05-05T08:17:30.100Z,69.00
2019-05-05T08:20:04.738Z,68.90
2019-05-05T08:22:35.618Z,68.90
2019-05-05T08:25:14.978Z,68.70
2019-05-05T08:28:04.807Z,68.40
2019-05-05T08:31:00.428Z,68.10
2019-05-05T08:33:33.470Z,68.00
2019-05-05T08:36:04.596Z,67.50
2019-05-05T08:38:36.903Z,66.40
2019-05-05T08:41:08.142Z,64.60
2019-05-05T08:43:40.293Z,63.80
2019-05-05T08:46:11.150Z,63.30
2019-05-05T08:48:42.031Z,64.00
2019-05-05T08:51:14.140Z,64.80
2019-05-05T08:53:48.127Z,65.20
2019-05-05T08:56:17.599Z,64.20
2019-05-05T08:58:49.917Z,63.80
2019-05-05T09:01:20.961Z,63.80
2019-05-05T09:03:53.566Z,63.90
2019-05-05T09:06:24.508Z,63.80
2019-05-05T09:08:55.368Z,63.60
2019-05-05T09:11:26.292Z,62.90
2019-05-05T09:13:57.217Z,64.00
2019-05-05T09:16:28.223Z,62.80
2019-05-05T09:19:09.979Z,62.30
2019-05-05T09:21:40.928Z,62.00
2019-05-05T09:24:27.365Z,61.90
2019-05-05T09:27:20.343Z,61.80
2019-05-05T09:29:51.299Z,60.00
2019-05-05T09:32:24.162Z,57.00
2019-05-05T09:34:54.800Z,56.60
2019-05-05T09:37:25.805Z,56.80
2019-05-05T09:39:56.725Z,56.30
2019-05-05T09:42:27.661Z,53.40
2019-05-05T09:44:58.525Z,51.00
2019-05-05T09:47:29.438Z,47.60
2019-05-05T09:50:00.400Z,44.10
2019-05-05T09:52:31.296Z,44.70
2019-05-05T09:55:03.851Z,43.50
2019-05-05T09:57:34.729Z,42.20
2019-05-05T10:00:09.203Z,41.20
2019-05-05T10:02:40.401Z,41.30
2019-05-05T10:05:11.462Z,42.70
2019-05-05T10:07:44.081Z,40.70
2019-05-05T10:10:15.381Z,41.20
2019-05-05T10:12:46.303Z,42.10
2019-05-05T10:15:17.746Z,41.40
2019-05-05T10:17:48.657Z,40.00
2019-05-05T10:20:19.565Z,37.70
2019-05-05T10:22:50.519Z,36.60
2019-05-05T10:25:53.984Z,36.40
2019-05-05T10:28:24.870Z,36.00
2019-05-05T10:30:55.729Z,34.50
2019-05-05T10:33:26.579Z,31.90
2019-05-05T10:35:57.491Z,32.50
2019-05-05T10:38:28.395Z,32.90
2019-05-05T10:40:59.266Z,33.80
2019-05-05T10:43:30.251Z,34.50
2019-05-05T10:46:01.151Z,34.50
2019-05-05T10:48:33.981Z,33.20
2019-05-05T10:51:04.735Z,34.20
2019-05-05T10:53:35.930Z,35.80
2019-05-05T10:56:06.846Z,36.60
2019-05-05T10:58:37.715Z,37.30
2019-05-05T11:01:08.682Z,37.00
2019-05-05T11:03:39.531Z,36.90
2019-05-05T11:06:10.394Z,37.00
2019-05-05T11:08:41.609Z,37.40
2019-05-05T11:11:13.706Z,37.40
2019-05-05T11:13:46.924Z,37.50
2019-05-05T11:16:18.135Z,37.70
2019-05-05T11:18:49.380Z,38.00
2019-05-05T11:21:20.216Z,38.00
2019-05-05T11:23:51.059Z,37.80
2019-05-05T11:26:21.970Z,37.80
2019-05-05T11:28:53.861Z,37.60
2019-05-05T11:31:24.873Z,37.90
2019-05-05T11:34:15.211Z,38.20
2019-05-05T11:36:59.327Z,37.70
2019-05-05T11:39:30.286Z,38.00
2019-05-05T11:42:01.268Z,38.20
2019-05-05T11:44:33.523Z,38.60
2019-05-05T11:47:04.488Z,37.90
2019-05-05T11:49:35.483Z,37.80
2019-05-05T11:52:06.521Z,37.60
2019-05-05T11:54:37.574Z,38.30
2019-05-05T11:57:08.483Z,38.20
2019-05-05T11:59:39.347Z,38.50
2019-05-05T12:02:10.275Z,38.70
2019-05-05T12:04:41.125Z,38.80
2019-05-05T12:07:14.569Z,39.30
2019-05-05T12:09:54.746Z,39.20
2019-05-05T12:12:24.859Z,39.30
2019-05-05T12:14:56.056Z,39.30
2019-05-05T12:17:36.507Z,39.40
2019-05-05T12:20:07.847Z,39.20
2019-05-05T12:22:38.731Z,38.70
2019-05-05T12:25:28.593Z,38.60
2019-05-05T12:28:04.522Z,38.50
2019-05-05T12:30:36.363Z,38.00
2019-05-05T12:33:07.569Z,38.00
2019-05-05T12:35:38.669Z,37.70
2019-05-05T12:38:09.555Z,37.80
2019-05-05T12:40:40.534Z,37.80
2019-05-05T12:43:14.086Z,37.40
2019-05-05T12:45:47.867Z,37.50
2019-05-05T12:48:24.174Z,37.10
2019-05-05T12:50:55.055Z,36.40
2019-05-05T12:53:26.093Z,36.30
2019-05-05T12:55:57.050Z,35.70
2019-05-05T12:58:27.966Z,36.10
2019-05-05T13:01:05.943Z,35.90
2019-05-05T13:03:37.263Z,35.50
2019-05-05T13:06:08.211Z,35.00
2019-05-05T13:08:39.232Z,35.30
2019-05-05T13:11:11.340Z,35.60
2019-05-05T13:13:43.942Z,36.00
2019-05-05T13:16:14.923Z,35.50
2019-05-05T13:18:45.781Z,36.00
2019-05-05T13:21:44.224Z,36.20
2019-05-05T13:24:36.746Z,36.30
2019-05-05T13:27:19.074Z,36.00
2019-05-05T13:29:44.866Z,35.90
2019-05-05T13:32:15.825Z,36.60
2019-05-05T13:34:46.707Z,37.40
2019-05-05T13:37:17.658Z,37.70
2019-05-05T13:39:48.906Z,37.80
2019-05-05T13:42:19.827Z,37.90
2019-05-05T13:45:23.655Z,38.00
2019-05-05T13:47:54.157Z,38.00
2019-05-05T13:50:50.072Z,37.80
2019-05-05T13:53:21.037Z,37.80
2019-05-05T13:55:55.552Z,38.00
2019-05-05T13:58:25.164Z,38.00
2019-05-05T14:00:56.154Z,38.00
2019-05-05T14:03:28.196Z,37.90
2019-05-05T14:05:59.168Z,37.80
2019-05-05T14:08:33.428Z,38.00
2019-05-05T14:11:03.634Z,38.10
2019-05-05T14:13:34.696Z,38.00
2019-05-05T14:16:05.691Z,38.10
2019-05-05T14:18:36.707Z,38.00
2019-05-05T14:21:07.787Z,37.80
2019-05-05T14:24:07.487Z,37.70
2019-05-05T14:26:38.451Z,38.00
2019-05-05T14:29:11.066Z,38.50
2019-05-05T14:31:41.916Z,39.00
2019-05-05T14:34:28.080Z,39.20
2019-05-05T14:37:16.354Z,39.20
2019-05-05T14:39:47.321Z,39.40
2019-05-05T14:42:18.219Z,39.60
2019-05-05T14:44:49.175Z,39.70
2019-05-05T14:47:20.079Z,39.80
2019-05-05T14:49:51.016Z,39.70
2019-05-05T14:52:24.316Z,40.00
2019-05-05T14:54:54.645Z,40.00
2019-05-05T14:57:28.161Z,40.00
2019-05-05T14:59:59.408Z,39.70
2019-05-05T15:02:30.285Z,39.60
2019-05-05T15:05:20.263Z,39.40
2019-05-05T15:08:04.470Z,39.60
2019-05-05T15:10:54.734Z,40.00
2019-05-05T15:13:26.118Z,40.40
2019-05-05T15:15:56.953Z,40.10
2019-05-05T15:18:27.917Z,40.20
2019-05-05T15:20:59.181Z,40.40
2019-05-05T15:23:30.153Z,40.70
2019-05-05T15:26:01.201Z,40.40
2019-05-05T15:28:33.654Z,40.30
2019-05-05T15:31:04.659Z,40.20
2019-05-05T15:33:35.622Z,40.00
2019-05-05T15:36:06.859Z,40.00
2019-05-05T15:38:38.002Z,40.10
2019-05-05T15:41:09.044Z,40.40
2019-05-05T15:43:40.285Z,40.50
2019-05-05T15:46:11.256Z,40.70
2019-05-05T15:48:43.803Z,40.90
2019-05-05T15:51:14.810Z,41.00
2019-05-05T15:53:45.684Z,40.60
2019-05-05T15:56:16.559Z,40.70
2019-05-05T15:58:47.508Z,40.40
2019-05-05T16:01:18.781Z,40.30
2019-05-05T16:03:49.642Z,40.40
2019-05-05T16:06:20.549Z,40.40
2019-05-05T16:08:54.397Z,40.30
2019-05-05T16:11:26.789Z,40.20
2019-05-05T16:13:57.116Z,40.20
2019-05-05T16:16:47.018Z,40.50
2019-05-05T16:19:29.018Z,40.70
2019-05-05T16:22:03.923Z,41.00
2019-05-05T16:24:36.837Z,41.10
2019-05-05T16:27:21.135Z,41.20
2019-05-05T16:29:41.354Z,41.40
2019-05-05T16:32:21.199Z,41.60
2019-05-05T16:34:44.894Z,41.60
2019-05-05T16:37:16.001Z,41.70
2019-05-05T16:39:47.024Z,41.70
2019-05-05T16:42:18.257Z,41.60
2019-05-05T16:44:49.379Z,41.80
2019-05-05T16:47:20.522Z,41.90
2019-05-05T16:49:53.522Z,41.80
2019-05-05T16:52:30.204Z,41.70
2019-05-05T16:55:05.553Z,41.50
2019-05-05T16:57:36.784Z,41.50
2019-05-05T17:00:08.325Z,41.50
2019-05-05T17:02:39.731Z,41.50
2019-05-05T17:05:10.856Z,41.50
2019-05-05T17:07:41.791Z,41.40
2019-05-05T17:10:13.940Z,41.30
2019-05-05T17:12:45.033Z,41.30
2019-05-05T17:15:35.350Z,41.30
2019-05-05T17:18:35.294Z,41.20
2019-05-05T17:21:04.548Z,41.20
2019-05-05T17:23:35.484Z,41.20
2019-05-05T17:26:06.448Z,41.10
2019-05-05T17:28:37.333Z,41.10
2019-05-05T17:31:08.307Z,41.10
2019-05-05T17:33:39.265Z,41.10
2019-05-05T17:36:10.175Z,41.10
2019-05-05T17:38:43.589Z,41.20
2019-05-05T17:41:31.403Z,41.30
2019-05-05T17:44:16.981Z,41.20
2019-05-05T17:46:54.228Z,41.30
2019-05-05T17:49:44.055Z,41.30
2019-05-05T17:52:23.301Z,41.50
2019-05-05T17:54:56.934Z,41.50
2019-05-05T17:57:27.869Z,41.60
2019-05-05T17:59:59.179Z,41.50
2019-05-05T18:02:30.112Z,41.60
2019-05-05T18:05:01.449Z,41.70
2019-05-05T18:07:38.962Z,41.70
2019-05-05T18:10:17.678Z,41.70
2019-05-05T18:13:05.592Z,41.80
2019-05-05T18:15:57.358Z,41.90
2019-05-05T18:18:28.316Z,41.90
2019-05-05T18:20:59.318Z,42.00
2019-05-05T18:23:30.275Z,42.20
2019-05-05T18:26:01.342Z,42.20
2019-05-05T18:28:34.093Z,42.50
2019-05-05T18:31:05.646Z,42.60
2019-05-05T18:33:36.868Z,42.70
2019-05-05T18:36:07.844Z,42.90
2019-05-05T18:38:38.798Z,43.00
2019-05-05T18:41:15.143Z,43.10
2019-05-05T18:43:55.311Z,43.20
2019-05-05T18:46:26.398Z,43.20
2019-05-05T18:48:57.369Z,43.20
2019-05-05T18:51:28.421Z,43.20
2019-05-05T18:53:59.456Z,43.30
2019-05-05T18:56:30.517Z,43.30
2019-05-05T18:59:04.618Z,43.30
2019-05-05T19:02:03.702Z,43.40
2019-05-05T19:05:04.752Z,43.40
2019-05-05T19:07:55.443Z,43.50
2019-05-05T19:10:24.114Z,43.60
2019-05-05T19:12:54.657Z,43.70
2019-05-05T19:15:25.713Z,43.80
2019-05-05T19:17:56.740Z,43.90
2019-05-05T19:20:35.230Z,44.10
2019-05-05T19:23:06.380Z,44.20
2019-05-05T19:25:37.399Z,44.20
2019-05-05T19:28:08.552Z,44.40
2019-05-05T19:30:39.579Z,45.20
2019-05-05T19:33:10.544Z,44.60
2019-05-05T19:35:45.098Z,44.70
2019-05-05T19:38:15.814Z,44.90
2019-05-05T19:40:46.836Z,45.00
2019-05-05T19:43:17.813Z,45.10
2019-05-05T19:45:48.877Z,45.20
2019-05-05T19:48:19.957Z,45.30
2019-05-05T19:50:57.707Z,45.40
2019-05-05T19:53:28.754Z,45.50
2019-05-05T19:55:59.857Z,45.60
2019-05-05T19:58:31.241Z,45.70
2019-05-05T20:01:04.900Z,45.80
2019-05-05T20:03:36.133Z,45.90
2019-05-05T20:06:07.207Z,46.00
2019-05-05T20:08:41.406Z,46.10
2019-05-05T20:11:10.760Z,46.20
2019-05-05T20:13:44.437Z,46.30
2019-05-05T20:16:43.717Z,46.50
2019-05-05T20:19:15.715Z,46.60
2019-05-05T20:21:46.618Z,46.60
2019-05-05T20:24:17.755Z,46.70
2019-05-05T20:26:49.030Z,46.80
2019-05-05T20:29:19.827Z,46.90
2019-05-05T20:31:50.875Z,47.00
2019-05-05T20:34:39.441Z,47.10
2019-05-05T20:37:15.323Z,47.20
2019-05-05T20:39:46.111Z,47.30
2019-05-05T20:42:17.077Z,47.50
2019-05-05T20:44:48.021Z,47.50
2019-05-05T20:47:18.868Z,47.60
2019-05-05T20:49:50.094Z,47.60
2019-05-05T20:52:23.597Z,47.80
2019-05-05T20:54:54.507Z,47.90
2019-05-05T20:57:25.423Z,47.90
2019-05-05T20:59:56.304Z,48.00
2019-05-05T21:02:27.250Z,48.20
2019-05-05T21:04:58.525Z,48.30
2019-05-05T21:07:29.487Z,48.30
2019-05-05T21:10:00.454Z,48.40
2019-05-05T21:12:41.764Z,48.50
2019-05-05T21:15:04.912Z,48.60
2019-05-05T21:17:36.014Z,48.60
2019-05-05T21:20:06.932Z,48.70
2019-05-05T21:22:45.049Z,48.70
2019-05-05T21:25:24.900Z,48.90
2019-05-05T21:27:55.769Z,48.90
2019-05-05T21:30:26.655Z,48.90
2019-05-05T21:32:57.589Z,49.10
2019-05-05T21:35:28.466Z,49.20
2019-05-05T21:37:59.250Z,49.20
2019-05-05T21:40:30.171Z,49.30
2019-05-05T21:43:01.372Z,49.40
2019-05-05T21:45:34.485Z,49.50
2019-05-05T21:48:04.741Z,49.50
2019-05-05T21:50:40.669Z,49.60
2019-05-05T21:53:22.051Z,49.70
2019-05-05T21:56:24.812Z,49.80
2019-05-05T21:58:56.966Z,50.00
2019-05-05T22:01:29.298Z,50.00
2019-05-05T22:04:03.565Z,50.00
2019-05-05T22:06:34.628Z,50.10
2019-05-05T22:09:06.947Z,50.20
2019-05-05T22:11:39.472Z,50.30
2019-05-05T22:14:10.662Z,50.40
2019-05-05T22:16:41.560Z,50.50
2019-05-05T22:19:14.459Z,50.70
2019-05-05T22:21:54.505Z,50.70
2019-05-05T22:24:25.813Z,50.80
2019-05-05T22:26:56.771Z,51.00
2019-05-05T22:29:27.759Z,51.20
2019-05-05T22:31:58.589Z,51.20
2019-05-05T22:34:29.496Z,51.20
2019-05-05T22:37:00.389Z,51.30
2019-05-05T22:39:33.654Z,51.50
2019-05-05T22:42:04.734Z,51.60
2019-05-05T22:44:35.666Z,51.60
2019-05-05T22:47:06.725Z,51.70
2019-05-05T22:49:37.714Z,51.90
2019-05-05T22:52:08.522Z,51.90
2019-05-05T22:54:39.274Z,52.10
2019-05-05T22:57:10.071Z,52.00
2019-05-05T22:59:40.985Z,52.10
2019-05-05T23:02:14.269Z,52.30
2019-05-05T23:04:56.873Z,52.40
2019-05-05T23:07:32.026Z,52.60
2019-05-05T23:10:04.591Z,52.70
2019-05-05T23:12:35.586Z,52.60
2019-05-05T23:15:07.648Z,52.60
2019-05-05T23:17:47.552Z,52.70
2019-05-05T23:21:17.672Z,52.70
2019-05-05T23:24:14.296Z,52.90
2019-05-05T23:26:47.032Z,53.00
2019-05-05T23:29:17.887Z,53.00
2019-05-05T23:31:49.094Z,53.10
2019-05-05T23:34:20.009Z,53.10
2019-05-05T23:36:50.825Z,53.20
2019-05-05T23:39:21.698Z,53.20
2019-05-05T23:41:54.500Z,53.30
2019-05-05T23:44:25.102Z,53.30
2019-05-05T23:46:55.986Z,53.50
2019-05-05T23:49:26.873Z,53.40
2019-05-05T23:51:57.694Z,53.50
2019-05-05T23:54:28.574Z,53.60
2019-05-05T23:56:59.712Z,53.60
2019-05-05T23:59:30.562Z,53.70
